Time;durP1;ratioP1;P1;durP2;ratioP2;P2;SDS_P1;SDS_P2;PMS_P1;PMS_P2;Temp;Humidity;BMP_temperature;BMP_pressure;BME280_temperature;BME280_humidity;BME280_pressure;Samples;Min_cycle;Max_cycle;Signal;HPM_P1;HPM_P2
2024/03/13 00:00:12;;;;;;;19.75;12.25;;;;;;;;;;5075657;28;20046;-76
2024/03/13 00:02:37;;;;;;;16.80;10.48;;;;;;;;;;5073624;28;20037;-76
2024/03/13 00:05:03;;;;;;;16.98;10.75;;;;;;;;;;5069752;28;20524;-76
2024/03/13 00:07:29;;;;;;;16.90;11.75;;;;;;;;;;5077224;28;20025;-76
2024/03/13 00:09:55;;;;;;;18.60;12.27;;;;;;;;;;5074831;28;20029;-76
2024/03/13 00:12:20;;;;;;;16.65;10.93;;;;;;;;;;5069035;28;20389;-76
2024/03/13 00:14:49;;;;;;;19.45;12.30;;;;;;;;;;5069596;28;20040;-76
2024/03/13 00:17:16;;;;;;;18.33;12.13;;;;;;;;;;5069385;28;20032;-76
2024/03/13 00:19:41;;;;;;;15.60;11.32;;;;;;;;;;5073195;28;20067;-76
2024/03/13 00:22:07;;;;;;;18.90;11.05;;;;;;;;;;5072897;28;20082;-76
2024/03/13 00:24:32;;;;;;;16.95;10.93;;;;;;;;;;5071054;28;20032;-76
2024/03/13 00:26:57;;;;;;;17.77;10.15;;;;;;;;;;5069500;28;20041;-76
2024/03/13 00:29:23;;;;;;;15.82;10.23;;;;;;;;;;5074446;28;20044;-76
2024/03/13 00:31:48;;;;;;;17.90;11.35;;;;;;;;;;5068984;28;20043;-76
2024/03/13 00:34:13;;;;;;;17.55;11.25;;;;;;;;;;5069555;28;20033;-76
2024/03/13 00:36:39;;;;;;;16.90;11.93;;;;;;;;;;5073081;28;20082;-76
2024/03/13 00:39:05;;;;;;;18.23;10.57;;;;;;;;;;5078737;28;20039;-76
2024/03/13 00:41:30;;;;;;;16.58;10.55;;;;;;;;;;5073821;28;20515;-76
2024/03/13 00:43:55;;;;;;;17.60;11.25;;;;;;;;;;5072552;28;20028;-76
2024/03/13 00:46:23;;;;;;;14.35;9.57;;;;;;;;;;5072696;28;20039;-76
2024/03/13 00:48:48;;;;;;;17.52;12.40;;;;;;;;;;5079012;28;20093;-76
2024/03/13 00:51:13;;;;;;;18.38;12.45;;;;;;;;;;5079091;28;20033;-76
2024/03/13 00:53:38;;;;;;;16.45;10.77;;;;;;;;;;5077900;28;20060;-76
2024/03/13 00:56:04;;;;;;;16.85;11.30;;;;;;;;;;5072611;28;20120;-76
2024/03/13 00:58:29;;;;;;;16.02;10.95;;;;;;;;;;5073915;28;20036;-76
2024/03/13 01:00:55;;;;;;;19.73;11.57;;;;;;;;;;5075072;28;20051;-77
2024/03/13 01:03:22;;;;;;;17.50;11.35;;;;;;;;;;5072137;28;20107;-76
2024/03/13 01:05:47;;;;;;;16.95;11.10;;;;;;;;;;5074521;28;20447;-76
2024/03/13 01:08:14;;;;;;;16.17;11.57;;;;;;;;;;5074267;28;20052;-77
2024/03/13 01:10:39;;;;;;;18.65;11.90;;;;;;;;;;5079883;28;20025;-77
2024/03/13 01:13:05;;;;;;;17.38;11.60;;;;;;;;;;5072200;28;20051;-76
2024/03/13 01:15:30;;;;;;;17.42;11.43;;;;;;;;;;5070652;28;20039;-76
2024/03/13 01:17:57;;;;;;;19.13;11.68;;;;;;;;;;5072104;28;20032;-76
2024/03/13 01:20:23;;;;;;;19.73;12.27;;;;;;;;;;5078847;28;20481;-76
2024/03/13 01:22:49;;;;;;;15.45;9.48;;;;;;;;;;5076580;28;20032;-76
2024/03/13 01:25:15;;;;;;;15.68;10.85;;;;;;;;;;5072073;28;20028;-76
2024/03/13 01:27:42;;;;;;;17.38;11.25;;;;;;;;;;5071888;28;20117;-76
2024/03/13 01:30:08;;;;;;;15.95;10.75;;;;;;;;;;5077809;28;20051;-76
2024/03/13 01:32:33;;;;;;;17.00;10.88;;;;;;;;;;5071691;28;20056;-76
2024/03/13 01:34:58;;;;;;;19.15;12.40;;;;;;;;;;5071925;28;20574;-76
2024/03/13 01:40:09;;;;;;;16.45;9.60;;;;;;;;;;5074642;28;20020;-76
2024/03/13 01:56:32;;;;;;;18.63;11.27;;;;;;;;;;5074925;28;20025;-76
2024/03/13 01:59:19;;;;;;;17.63;10.70;;;;;;;;;;5073664;28;20089;-76
2024/03/13 02:04:28;;;;;;;17.85;11.30;;;;;;;;;;5077360;28;20369;-76
2024/03/13 02:06:54;;;;;;;16.92;11.10;;;;;;;;;;5076578;28;20158;-76
2024/03/13 02:09:22;;;;;;;17.45;10.68;;;;;;;;;;5076996;28;20035;-76
2024/03/13 02:11:49;;;;;;;15.80;9.90;;;;;;;;;;5070849;28;20039;-75
2024/03/13 02:14:14;;;;;;;16.40;10.52;;;;;;;;;;5070757;28;20109;-76
2024/03/13 02:16:40;;;;;;;18.95;10.63;;;;;;;;;;5070989;28;20071;-76
2024/03/13 02:19:06;;;;;;;16.52;11.43;;;;;;;;;;5072155;28;20029;-76
2024/03/13 02:21:32;;;;;;;17.77;10.73;;;;;;;;;;5071530;28;20021;-76
2024/03/13 02:23:58;;;;;;;19.58;12.07;;;;;;;;;;5073773;28;20035;-77
2024/03/13 02:26:24;;;;;;;22.00;13.07;;;;;;;;;;5070739;28;20040;-76
2024/03/13 02:28:51;;;;;;;18.60;11.68;;;;;;;;;;5074802;28;20074;-76
2024/03/13 02:31:16;;;;;;;20.05;12.07;;;;;;;;;;5073483;28;20408;-76
2024/03/13 02:33:43;;;;;;;19.55;12.27;;;;;;;;;;5070476;28;20028;-76
2024/03/13 02:36:08;;;;;;;16.50;11.23;;;;;;;;;;5070492;28;20016;-76
2024/03/13 02:38:33;;;;;;;19.42;11.38;;;;;;;;;;5073589;28;20442;-76
2024/03/13 02:40:59;;;;;;;22.65;12.35;;;;;;;;;;5074550;28;20104;-76
2024/03/13 02:43:24;;;;;;;21.73;13.73;;;;;;;;;;5068615;28;20031;-76
2024/03/13 02:45:50;;;;;;;17.98;11.82;;;;;;;;;;5070606;28;20485;-76
2024/03/13 02:48:16;;;;;;;18.38;11.35;;;;;;;;;;5080440;28;20032;-76
2024/03/13 02:50:42;;;;;;;19.23;12.20;;;;;;;;;;5077625;28;20025;-76
2024/03/13 02:53:07;;;;;;;19.75;12.02;;;;;;;;;;5073359;28;20384;-76
2024/03/13 02:55:33;;;;;;;18.40;11.07;;;;;;;;;;5078469;28;20044;-76
2024/03/13 02:57:58;;;;;;;17.80;10.70;;;;;;;;;;5069845;28;20035;-76
2024/03/13 03:00:25;;;;;;;18.50;12.57;;;;;;;;;;5076951;28;20500;-76
2024/03/13 03:02:51;;;;;;;20.27;13.05;;;;;;;;;;5070123;28;20448;-76
2024/03/13 03:05:16;;;;;;;20.35;12.38;;;;;;;;;;5070084;28;20032;-76
2024/03/13 03:07:43;;;;;;;17.90;11.88;;;;;;;;;;5076160;28;20028;-76
2024/03/13 03:10:08;;;;;;;17.05;10.77;;;;;;;;;;5080406;28;20035;-77
2024/03/13 03:12:33;;;;;;;16.48;10.85;;;;;;;;;;5069847;28;20484;-76
2024/03/13 03:15:00;;;;;;;17.30;10.65;;;;;;;;;;5070028;28;20079;-76
2024/03/13 03:17:25;;;;;;;28.25;13.93;;;;;;;;;;5070043;28;20082;-76
2024/03/13 03:19:50;;;;;;;16.73;11.73;;;;;;;;;;5080784;28;20036;-77
2024/03/13 03:22:17;;;;;;;18.77;12.40;;;;;;;;;;5072313;28;20028;-76
2024/03/13 03:24:42;;;;;;;21.25;13.15;;;;;;;;;;5070374;28;20107;-75
2024/03/13 03:27:07;;;;;;;19.15;11.65;;;;;;;;;;5070001;28;20107;-75
2024/03/13 03:29:33;;;;;;;18.20;11.90;;;;;;;;;;5077823;28;20077;-75
2024/03/13 03:31:59;;;;;;;18.48;10.73;;;;;;;;;;5069630;28;20115;-75
2024/03/13 03:34:24;;;;;;;17.73;11.13;;;;;;;;;;5068360;28;20036;-75
2024/03/13 03:36:49;;;;;;;21.35;12.88;;;;;;;;;;5073956;28;20035;-75
2024/03/13 03:39:15;;;;;;;19.58;12.38;;;;;;;;;;5076017;28;20099;-75
2024/03/13 03:41:40;;;;;;;18.75;10.15;;;;;;;;;;5069736;28;20028;-75
2024/03/13 03:44:07;;;;;;;17.63;11.15;;;;;;;;;;5069834;28;20557;-75
2024/03/13 03:46:32;;;;;;;19.83;11.63;;;;;;;;;;5069937;28;20093;-74
2024/03/13 03:48:58;;;;;;;19.70;11.93;;;;;;;;;;5075768;28;20388;-75
2024/03/13 03:51:24;;;;;;;18.95;11.68;;;;;;;;;;5072345;28;20107;-75
2024/03/13 03:53:49;;;;;;;18.88;12.52;;;;;;;;;;5074515;28;20036;-75
2024/03/13 03:56:14;;;;;;;17.67;10.90;;;;;;;;;;5069428;28;20449;-75
2024/03/13 03:58:42;;;;;;;20.02;12.02;;;;;;;;;;5073266;28;20499;-75
2024/03/13 04:01:07;;;;;;;17.65;12.20;;;;;;;;;;5076548;28;20420;-75
2024/03/13 04:03:34;;;;;;;19.17;11.13;;;;;;;;;;5069304;28;20029;-74
2024/03/13 04:05:59;;;;;;;19.88;11.68;;;;;;;;;;5069878;28;20063;-75
2024/03/13 04:08:25;;;;;;;21.02;12.63;;;;;;;;;;5072970;28;20453;-75
2024/03/13 04:10:50;;;;;;;18.30;10.80;;;;;;;;;;5085871;28;20055;-75
2024/03/13 04:13:19;;;;;;;18.50;10.60;;;;;;;;;;5073323;28;20040;-75
2024/03/13 04:15:46;;;;;;;19.30;11.63;;;;;;;;;;5073237;28;20028;-74
2024/03/13 04:18:12;;;;;;;19.95;12.07;;;;;;;;;;5072050;28;20501;-75
2024/03/13 04:20:38;;;;;;;22.42;14.30;;;;;;;;;;5083789;28;20040;-74
2024/03/13 04:23:03;;;;;;;20.77;12.18;;;;;;;;;;5078854;28;20028;-74
2024/03/13 04:25:29;;;;;;;19.73;11.25;;;;;;;;;;5072885;28;20059;-75
2024/03/13 04:27:54;;;;;;;23.13;13.05;;;;;;;;;;5072101;28;21089;-75
2024/03/13 04:30:21;;;;;;;21.50;12.15;;;;;;;;;;5080310;28;20028;-75
2024/03/13 04:32:47;;;;;;;21.50;12.43;;;;;;;;;;5072755;28;20086;-75
2024/03/13 04:35:12;;;;;;;19.98;11.45;;;;;;;;;;5072779;28;20431;-75
2024/03/13 04:37:39;;;;;;;17.05;11.27;;;;;;;;;;5072902;28;20446;-74
2024/03/13 04:40:07;;;;;;;16.70;11.07;;;;;;;;;;5086855;28;20491;-75
2024/03/13 04:42:33;;;;;;;18.05;11.00;;;;;;;;;;5072475;28;20020;-75
2024/03/13 04:44:59;;;;;;;21.10;12.38;;;;;;;;;;5078355;28;20077;-75
2024/03/13 04:47:25;;;;;;;18.95;11.15;;;;;;;;;;5084749;28;20040;-75
2024/03/13 04:49:50;;;;;;;20.83;12.40;;;;;;;;;;5087059;28;20042;-75
2024/03/13 04:52:15;;;;;;;20.23;12.68;;;;;;;;;;5078487;28;20106;-75
2024/03/13 04:54:40;;;;;;;18.92;12.63;;;;;;;;;;5072668;28;20036;-75
2024/03/13 04:57:05;;;;;;;20.75;12.35;;;;;;;;;;5075411;28;20052;-75
2024/03/13 04:59:31;;;;;;;21.13;12.23;;;;;;;;;;5079642;28;20025;-76
2024/03/13 05:01:56;;;;;;;24.48;14.77;;;;;;;;;;5075697;28;20044;-75
2024/03/13 05:04:21;;;;;;;19.88;12.68;;;;;;;;;;5070899;28;20056;-75
2024/03/13 05:06:47;;;;;;;23.20;13.40;;;;;;;;;;5071266;28;20388;-75
2024/03/13 05:09:12;;;;;;;19.98;12.23;;;;;;;;;;5078347;28;20023;-75
2024/03/13 05:11:37;;;;;;;25.20;13.60;;;;;;;;;;5078720;28;20031;-76
2024/03/13 05:14:03;;;;;;;25.48;15.50;;;;;;;;;;5072232;28;20512;-75
2024/03/13 05:16:28;;;;;;;19.95;11.30;;;;;;;;;;5072349;28;20020;-75
2024/03/13 05:18:53;;;;;;;20.90;12.20;;;;;;;;;;5078499;28;20088;-74
2024/03/13 05:21:18;;;;;;;23.30;14.38;;;;;;;;;;5082087;28;20025;-75
2024/03/13 05:23:43;;;;;;;19.92;12.50;;;;;;;;;;5076504;28;20025;-75
2024/03/13 05:26:09;;;;;;;19.63;11.98;;;;;;;;;;5073582;28;20036;-74
2024/03/13 05:28:34;;;;;;;19.65;12.18;;;;;;;;;;5073035;28;20043;-74
2024/03/13 05:30:59;;;;;;;20.98;13.18;;;;;;;;;;5081667;28;20028;-75
2024/03/13 05:33:24;;;;;;;23.33;15.05;;;;;;;;;;5071306;28;20382;-74
2024/03/13 05:35:50;;;;;;;23.00;12.75;;;;;;;;;;5073693;28;20035;-75
2024/03/13 05:38:16;;;;;;;24.55;13.48;;;;;;;;;;5071668;28;20025;-75
2024/03/13 05:40:42;;;;;;;20.38;12.07;;;;;;;;;;5077282;28;20104;-75
2024/03/13 05:43:07;;;;;;;22.25;12.30;;;;;;;;;;5075665;28;20555;-75
2024/03/13 05:45:32;;;;;;;21.45;13.30;;;;;;;;;;5077383;28;20077;-75
2024/03/13 05:47:57;;;;;;;20.65;11.88;;;;;;;;;;5072788;28;20055;-75
2024/03/13 05:50:23;;;;;;;21.58;12.68;;;;;;;;;;5083871;28;20035;-75
2024/03/13 05:52:48;;;;;;;24.92;12.38;;;;;;;;;;5077113;28;20064;-75
2024/03/13 05:55:16;;;;;;;17.90;11.23;;;;;;;;;;5072720;28;20021;-76
2024/03/13 05:57:42;;;;;;;18.48;10.73;;;;;;;;;;5078636;28;20043;-75
2024/03/13 06:00:09;;;;;;;17.80;10.82;;;;;;;;;;5084178;28;20489;-75
2024/03/13 06:02:36;;;;;;;21.50;11.40;;;;;;;;;;5077060;28;20025;-75
2024/03/13 06:05:09;;;;;;;16.90;11.10;;;;;;;;;;5081699;28;20020;-75
2024/03/13 06:07:34;;;;;;;41.28;17.85;;;;;;;;;;5078296;28;20085;-75
2024/03/13 06:10:01;;;;;;;36.38;20.20;;;;;;;;;;5080466;28;20103;-75
2024/03/13 06:12:26;;;;;;;42.35;21.45;;;;;;;;;;5071088;28;20124;-75
2024/03/13 06:14:52;;;;;;;24.35;12.90;;;;;;;;;;5070999;28;20108;-75
2024/03/13 06:17:18;;;;;;;20.75;12.10;;;;;;;;;;5071039;28;20032;-75
2024/03/13 06:19:43;;;;;;;17.85;10.68;;;;;;;;;;5076076;28;20036;-75
2024/03/13 06:22:09;;;;;;;16.55;10.73;;;;;;;;;;5081095;28;20021;-75
2024/03/13 06:24:35;;;;;;;17.15;10.48;;;;;;;;;;5072276;28;20035;-74
2024/03/13 06:27:02;;;;;;;19.15;11.07;;;;;;;;;;5070987;28;20028;-75
2024/03/13 06:32:11;;;;;;;21.80;12.52;;;;;;;;;;5070008;28;20063;-75
2024/03/13 06:34:38;;;;;;;19.75;12.02;;;;;;;;;;5070508;28;20553;-75
2024/03/13 06:37:03;;;;;;;18.83;10.52;;;;;;;;;;5070689;28;20039;-75
2024/03/13 06:39:28;;;;;;;20.52;12.27;;;;;;;;;;5076156;28;20028;-74
2024/03/13 06:41:54;;;;;;;17.80;10.48;;;;;;;;;;5076076;28;20399;-75
2024/03/13 06:44:20;;;;;;;18.17;9.85;;;;;;;;;;5076917;28;20052;-75
2024/03/13 06:46:45;;;;;;;17.40;10.70;;;;;;;;;;5076049;28;20028;-75
2024/03/13 06:49:11;;;;;;;17.67;10.18;;;;;;;;;;5084396;28;20034;-75
2024/03/13 06:51:36;;;;;;;21.17;11.73;;;;;;;;;;5080451;28;20024;-76
2024/03/13 06:54:01;;;;;;;20.30;11.68;;;;;;;;;;5073683;28;20023;-75
2024/03/13 06:56:27;;;;;;;20.48;12.45;;;;;;;;;;5070402;28;20024;-75
2024/03/13 06:58:52;;;;;;;22.05;13.15;;;;;;;;;;5071127;28;20037;-75
2024/03/13 07:01:18;;;;;;;20.73;12.27;;;;;;;;;;5077198;28;20090;-75
2024/03/13 07:03:43;;;;;;;22.42;13.52;;;;;;;;;;5070033;28;20138;-75
2024/03/13 07:06:09;;;;;;;23.15;13.77;;;;;;;;;;5068801;28;20507;-75
2024/03/13 07:08:35;;;;;;;26.30;15.75;;;;;;;;;;5070203;28;20025;-75
2024/03/13 07:11:04;;;;;;;22.02;14.00;;;;;;;;;;5081263;28;20032;-75
2024/03/13 07:13:31;;;;;;;24.33;14.77;;;;;;;;;;5068421;28;20028;-75
2024/03/13 07:15:56;;;;;;;22.90;13.93;;;;;;;;;;5070233;28;20024;-75
2024/03/13 07:18:21;;;;;;;24.50;15.50;;;;;;;;;;5069994;28;20690;-75
2024/03/13 07:20:47;;;;;;;22.25;14.07;;;;;;;;;;5080515;28;20032;-75
2024/03/13 07:23:13;;;;;;;20.75;14.07;;;;;;;;;;5076472;28;20043;-75
2024/03/13 07:25:38;;;;;;;20.38;13.57;;;;;;;;;;5074153;28;20024;-75
2024/03/13 07:28:03;;;;;;;18.85;11.68;;;;;;;;;;5069968;28;20032;-75
2024/03/13 07:30:29;;;;;;;23.90;15.45;;;;;;;;;;5078909;28;20060;-75
2024/03/13 07:32:54;;;;;;;28.13;18.48;;;;;;;;;;5069670;28;20033;-75
2024/03/13 07:35:19;;;;;;;22.98;13.50;;;;;;;;;;5069788;28;20033;-75
2024/03/13 07:37:44;;;;;;;19.85;13.70;;;;;;;;;;5074160;28;20025;-75
2024/03/13 07:40:10;;;;;;;23.08;14.52;;;;;;;;;;5079345;28;20133;-75
2024/03/13 07:42:35;;;;;;;20.98;13.23;;;;;;;;;;5069737;28;20075;-75
2024/03/13 07:45:01;;;;;;;23.02;14.93;;;;;;;;;;5075628;28;20692;-75
2024/03/13 07:47:26;;;;;;;22.88;13.88;;;;;;;;;;5083075;28;20056;-75
2024/03/13 07:49:52;;;;;;;24.58;15.82;;;;;;;;;;5082394;28;20609;-75
2024/03/13 07:52:17;;;;;;;22.08;13.82;;;;;;;;;;5075821;28;20036;-76
2024/03/13 07:54:42;;;;;;;24.40;14.55;;;;;;;;;;5084550;28;20028;-75
2024/03/13 07:57:13;;;;;;;21.35;12.80;;;;;;;;;;5080896;28;20066;-75
2024/03/13 07:59:40;;;;;;;26.05;15.55;;;;;;;;;;5081332;28;20066;-75
2024/03/13 08:02:07;;;;;;;23.38;13.77;;;;;;;;;;5079173;28;20036;-75
2024/03/13 08:04:32;;;;;;;24.75;14.30;;;;;;;;;;5082457;28;20085;-75
2024/03/13 08:06:58;;;;;;;22.00;12.45;;;;;;;;;;5073593;28;20028;-75
2024/03/13 08:09:28;;;;;;;22.95;13.90;;;;;;;;;;5077375;28;20028;-75
2024/03/13 08:11:54;;;;;;;22.30;14.25;;;;;;;;;;5077326;28;20508;-75
2024/03/13 08:14:20;;;;;;;21.60;13.63;;;;;;;;;;5075752;28;20427;-75
2024/03/13 08:16:46;;;;;;;24.75;15.65;;;;;;;;;;5078062;28;20032;-75
2024/03/13 08:19:11;;;;;;;21.52;12.85;;;;;;;;;;5080787;28;20035;-75
2024/03/13 08:21:37;;;;;;;22.45;13.85;;;;;;;;;;5085012;28;20031;-76
2024/03/13 08:24:02;;;;;;;24.25;13.55;;;;;;;;;;5085686;28;20035;-75
2024/03/13 08:26:28;;;;;;;21.67;13.75;;;;;;;;;;5080686;28;20024;-75
2024/03/13 08:28:53;;;;;;;25.83;14.63;;;;;;;;;;5079357;28;20105;-74
2024/03/13 08:31:18;;;;;;;23.38;14.27;;;;;;;;;;5080944;28;20052;-75
2024/03/13 08:33:43;;;;;;;33.85;19.08;;;;;;;;;;5076318;28;20116;-75
2024/03/13 08:36:09;;;;;;;28.77;15.30;;;;;;;;;;5071931;28;20029;-75
2024/03/13 08:38:34;;;;;;;24.10;14.43;;;;;;;;;;5072957;28;20971;-75
2024/03/13 08:41:02;;;;;;;24.40;14.90;;;;;;;;;;5081072;28;20024;-75
2024/03/13 08:43:27;;;;;;;23.90;14.52;;;;;;;;;;5073879;28;20038;-75
2024/03/13 08:45:53;;;;;;;23.73;14.20;;;;;;;;;;5081500;28;20024;-75
2024/03/13 08:48:18;;;;;;;27.25;14.98;;;;;;;;;;5073207;28;20067;-74
2024/03/13 08:50:43;;;;;;;45.00;22.88;;;;;;;;;;5083032;28;20028;-75
2024/03/13 08:53:09;;;;;;;24.90;15.30;;;;;;;;;;5077722;28;20111;-75
2024/03/13 08:55:34;;;;;;;29.60;16.23;;;;;;;;;;5071641;28;20515;-75
2024/03/13 08:58:03;;;;;;;30.77;18.58;;;;;;;;;;5073296;28;20032;-75
2024/03/13 09:00:28;;;;;;;27.25;15.82;;;;;;;;;;5080183;28;20055;-75
2024/03/13 09:02:55;;;;;;;25.35;14.68;;;;;;;;;;5076192;28;20029;-75
2024/03/13 09:05:21;;;;;;;45.95;25.42;;;;;;;;;;5073646;28;20125;-75
2024/03/13 09:07:46;;;;;;;24.70;15.55;;;;;;;;;;5080547;28;20517;-75
2024/03/13 09:10:12;;;;;;;28.40;17.35;;;;;;;;;;5082948;28;20544;-75
2024/03/13 09:12:38;;;;;;;26.65;16.25;;;;;;;;;;5080725;28;20043;-75
2024/03/13 09:15:03;;;;;;;28.75;15.82;;;;;;;;;;5074159;28;20028;-75
2024/03/13 09:17:28;;;;;;;24.58;14.85;;;;;;;;;;5072135;28;20114;-75
2024/03/13 09:19:53;;;;;;;26.08;15.60;;;;;;;;;;5080637;28;20103;-75
2024/03/13 09:22:19;;;;;;;25.25;15.40;;;;;;;;;;5077404;28;20055;-74
2024/03/13 09:24:44;;;;;;;24.63;15.55;;;;;;;;;;5076288;28;20113;-75
2024/03/13 09:27:09;;;;;;;28.35;16.73;;;;;;;;;;5071906;28;20039;-75
2024/03/13 09:29:35;;;;;;;23.25;14.63;;;;;;;;;;5075442;28;20024;-75
2024/03/13 09:32:00;;;;;;;24.75;14.90;;;;;;;;;;5080001;28;20027;-75
2024/03/13 09:34:25;;;;;;;26.05;14.75;;;;;;;;;;5082452;28;20115;-75
2024/03/13 09:36:50;;;;;;;23.88;15.00;;;;;;;;;;5078297;28;20051;-75
2024/03/13 09:39:16;;;;;;;23.23;14.98;;;;;;;;;;5074552;28;20028;-75
2024/03/13 09:41:41;;;;;;;25.85;15.40;;;;;;;;;;5080576;28;20088;-75
2024/03/13 09:44:06;;;;;;;24.83;14.43;;;;;;;;;;5073248;28;20086;-75
2024/03/13 09:46:32;;;;;;;21.50;13.43;;;;;;;;;;5070337;28;20485;-75
2024/03/13 09:48:58;;;;;;;24.27;15.13;;;;;;;;;;5071887;28;20029;-75
2024/03/13 09:51:24;;;;;;;24.15;15.82;;;;;;;;;;5077914;28;20075;-76
2024/03/13 09:53:49;;;;;;;22.02;13.32;;;;;;;;;;5075733;28;20107;-75
2024/03/13 09:56:16;;;;;;;24.17;15.40;;;;;;;;;;5077321;28;20044;-75
2024/03/13 09:58:44;;;;;;;24.38;14.02;;;;;;;;;;5061299;28;20500;-75
2024/03/13 10:01:14;;;;;;;23.02;14.52;;;;;;;;;;5077692;28;20544;-75
2024/03/13 10:03:42;;;;;;;22.00;14.75;;;;;;;;;;5070771;28;20035;-75
2024/03/13 10:06:12;;;;;;;24.88;14.90;;;;;;;;;;5069682;28;20028;-75
2024/03/13 10:08:40;;;;;;;22.25;14.05;;;;;;;;;;5076566;28;20047;-75
2024/03/13 10:11:06;;;;;;;21.90;13.15;;;;;;;;;;5078310;28;20103;-75
2024/03/13 10:13:33;;;;;;;21.58;12.75;;;;;;;;;;5070936;28;20568;-75
2024/03/13 10:16:00;;;;;;;23.65;14.93;;;;;;;;;;5074117;28;20032;-75
2024/03/13 10:18:25;;;;;;;22.30;13.32;;;;;;;;;;5078921;28;20113;-75
2024/03/13 10:20:54;;;;;;;22.10;13.95;;;;;;;;;;5076683;28;20032;-75
2024/03/13 10:23:21;;;;;;;21.70;13.48;;;;;;;;;;5077741;28;20386;-75
2024/03/13 10:25:48;;;;;;;22.88;14.05;;;;;;;;;;5071202;28;20047;-75
2024/03/13 10:28:18;;;;;;;22.15;13.07;;;;;;;;;;5076212;28;20039;-75
2024/03/13 10:30:43;;;;;;;23.67;15.55;;;;;;;;;;5082142;28;20024;-75
2024/03/13 10:33:09;;;;;;;22.08;14.15;;;;;;;;;;5070498;28;20030;-75
2024/03/13 10:35:34;;;;;;;22.45;13.88;;;;;;;;;;5070422;28;20123;-75
2024/03/13 10:37:59;;;;;;;18.23;11.70;;;;;;;;;;5076206;28;20024;-75
2024/03/13 10:40:25;;;;;;;22.35;13.13;;;;;;;;;;5074622;28;20039;-75
2024/03/13 10:42:50;;;;;;;21.55;13.80;;;;;;;;;;5081555;28;20047;-75
2024/03/13 10:45:15;;;;;;;20.65;12.82;;;;;;;;;;5070611;28;20078;-75
2024/03/13 10:47:40;;;;;;;22.95;13.85;;;;;;;;;;5070307;28;20071;-75
2024/03/13 10:50:08;;;;;;;22.80;13.27;;;;;;;;;;5075217;28;20102;-75
2024/03/13 10:52:35;;;;;;;23.98;13.73;;;;;;;;;;5074741;28;20048;-75
2024/03/13 10:55:01;;;;;;;23.00;13.75;;;;;;;;;;5070386;28;20025;-75
2024/03/13 10:57:27;;;;;;;25.70;14.73;;;;;;;;;;5070367;28;20546;-75
2024/03/13 10:59:52;;;;;;;25.10;14.95;;;;;;;;;;5071003;28;20020;-76
2024/03/13 11:02:18;;;;;;;23.60;13.77;;;;;;;;;;5077868;28;20215;-76
2024/03/13 11:04:44;;;;;;;19.35;12.48;;;;;;;;;;5077995;28;20068;-76
2024/03/13 11:07:13;;;;;;;19.90;11.90;;;;;;;;;;5075035;28;20042;-76
2024/03/13 11:09:39;;;;;;;20.60;13.23;;;;;;;;;;5072080;28;20064;-76
2024/03/13 11:12:18;;;;;;;19.83;12.55;;;;;;;;;;5073754;28;20067;-76
2024/03/13 11:14:47;;;;;;;21.02;14.23;;;;;;;;;;5074401;28;20444;-76
2024/03/13 11:17:14;;;;;;;20.73;12.23;;;;;;;;;;5069963;28;20027;-76
2024/03/13 11:19:39;;;;;;;19.13;13.07;;;;;;;;;;5072140;28;20031;-76
2024/03/13 11:22:05;;;;;;;20.10;13.07;;;;;;;;;;5076461;28;20032;-76
2024/03/13 11:24:31;;;;;;;19.38;12.45;;;;;;;;;;5073591;28;20028;-76
2024/03/13 11:27:01;;;;;;;19.77;13.10;;;;;;;;;;5069879;28;20036;-76
2024/03/13 11:29:33;;;;;;;22.42;13.93;;;;;;;;;;5064310;28;20058;-76
2024/03/13 11:31:58;;;;;;;20.13;13.33;;;;;;;;;;5078866;28;20028;-76
2024/03/13 11:34:24;;;;;;;20.25;13.32;;;;;;;;;;5080171;28;20265;-76
2024/03/13 11:36:50;;;;;;;21.85;13.98;;;;;;;;;;5081773;28;20116;-76
2024/03/13 11:39:15;;;;;;;21.00;12.77;;;;;;;;;;5080838;28;20032;-76
2024/03/13 11:41:44;;;;;;;28.80;18.30;;;;;;;;;;5074278;28;20467;-76
2024/03/13 11:44:14;;;;;;;27.42;17.45;;;;;;;;;;5063220;28;20032;-76
2024/03/13 11:46:43;;;;;;;25.73;15.95;;;;;;;;;;5073068;28;20107;-75
2024/03/13 11:49:08;;;;;;;19.88;12.45;;;;;;;;;;5077808;28;20110;-76
2024/03/13 11:51:35;;;;;;;30.88;20.20;;;;;;;;;;5078999;28;20111;-76
2024/03/13 11:54:12;;;;;;;24.48;15.90;;;;;;;;;;5077303;28;20043;-76
2024/03/13 11:56:39;;;;;;;27.25;17.80;;;;;;;;;;5069622;28;20040;-76
2024/03/13 11:59:05;;;;;;;26.27;15.57;;;;;;;;;;5069682;28;20028;-76
2024/03/13 12:01:30;;;;;;;27.60;19.40;;;;;;;;;;5074987;28;20449;-76
2024/03/13 12:03:57;;;;;;;19.58;12.90;;;;;;;;;;5070882;28;20051;-76
2024/03/13 12:06:22;;;;;;;21.55;14.20;;;;;;;;;;5076747;28;20370;-76
2024/03/13 12:08:48;;;;;;;19.83;12.77;;;;;;;;;;5069603;28;20086;-74
2024/03/13 12:11:16;;;;;;;19.33;14.07;;;;;;;;;;5077487;28;20032;-74
2024/03/13 12:13:41;;;;;;;19.73;12.90;;;;;;;;;;5075410;28;20119;-74
2024/03/13 12:16:06;;;;;;;27.02;16.67;;;;;;;;;;5068188;28;20111;-74
2024/03/13 12:18:31;;;;;;;20.55;13.30;;;;;;;;;;5069515;28;20039;-74
2024/03/13 12:20:57;;;;;;;25.40;16.25;;;;;;;;;;5072046;28;20573;-74
2024/03/13 12:23:23;;;;;;;20.45;12.13;;;;;;;;;;5074643;28;20028;-74
2024/03/13 12:25:49;;;;;;;19.52;12.30;;;;;;;;;;5071884;28;20032;-74
2024/03/13 12:28:20;;;;;;;24.88;16.50;;;;;;;;;;5069414;28;20041;-74
2024/03/13 12:30:48;;;;;;;24.05;15.48;;;;;;;;;;5078130;28;20439;-74
2024/03/13 12:33:14;;;;;;;20.13;12.60;;;;;;;;;;5072851;28;20128;-74
2024/03/13 12:35:39;;;;;;;20.55;12.95;;;;;;;;;;5072835;28;20064;-74
2024/03/13 12:38:05;;;;;;;18.77;12.30;;;;;;;;;;5072980;28;20024;-74
2024/03/13 12:40:33;;;;;;;17.42;11.65;;;;;;;;;;5083029;28;20024;-74
2024/03/13 12:43:00;;;;;;;18.80;12.05;;;;;;;;;;5075145;28;20097;-74
2024/03/13 12:45:26;;;;;;;18.75;12.40;;;;;;;;;;5078938;28;20064;-74
2024/03/13 12:47:51;;;;;;;22.55;14.98;;;;;;;;;;5073078;28;20180;-74
2024/03/13 12:50:17;;;;;;;17.98;12.27;;;;;;;;;;5081775;28;20036;-74
2024/03/13 12:52:45;;;;;;;20.05;13.20;;;;;;;;;;5078263;28;20060;-74
2024/03/13 12:55:12;;;;;;;23.75;16.10;;;;;;;;;;5072439;28;20119;-74
2024/03/13 12:57:37;;;;;;;17.48;11.40;;;;;;;;;;5072489;28;20043;-74
2024/03/13 13:00:13;;;;;;;17.13;10.90;;;;;;;;;;5072842;28;20025;-74
2024/03/13 13:02:38;;;;;;;18.25;12.45;;;;;;;;;;5072307;28;20396;-74
2024/03/13 13:05:05;;;;;;;20.70;13.20;;;;;;;;;;5072540;28;20031;-74
2024/03/13 13:07:30;;;;;;;22.10;13.85;;;;;;;;;;5072314;28;20485;-74
2024/03/13 13:09:56;;;;;;;18.20;12.63;;;;;;;;;;5073764;28;20134;-74
2024/03/13 13:12:24;;;;;;;25.77;14.38;;;;;;;;;;5073717;28;20812;-75
2024/03/13 13:14:50;;;;;;;16.52;11.95;;;;;;;;;;5083372;28;20442;-74
2024/03/13 13:17:15;;;;;;;16.63;11.13;;;;;;;;;;5081911;28;20033;-74
2024/03/13 13:19:40;;;;;;;16.10;10.90;;;;;;;;;;5079954;28;20032;-74
2024/03/13 13:22:06;;;;;;;24.02;15.93;;;;;;;;;;5081099;28;20027;-75
2024/03/13 13:24:31;;;;;;;12.65;7.55;;;;;;;;;;5075267;28;20116;-74
2024/03/13 13:26:56;;;;;;;13.07;8.57;;;;;;;;;;5072019;28;20064;-74
2024/03/13 13:29:23;;;;;;;13.73;8.90;;;;;;;;;;5072098;28;20173;-75
2024/03/13 13:31:48;;;;;;;18.05;10.50;;;;;;;;;;5076344;28;20028;-74
2024/03/13 13:34:13;;;;;;;9.95;7.03;;;;;;;;;;5071909;28;20029;-75
2024/03/13 13:36:39;;;;;;;13.47;8.97;;;;;;;;;;5078788;28;20047;-74
2024/03/13 13:39:05;;;;;;;15.15;10.23;;;;;;;;;;5071944;28;20290;-74
2024/03/13 13:41:30;;;;;;;17.55;10.45;;;;;;;;;;5076874;28;20167;-74
2024/03/13 13:43:55;;;;;;;13.07;7.68;;;;;;;;;;5071545;28;20103;-75
2024/03/13 13:46:21;;;;;;;9.15;5.80;;;;;;;;;;5071861;28;20033;-74
2024/03/13 13:48:46;;;;;;;12.00;7.88;;;;;;;;;;5075955;28;20394;-74
2024/03/13 13:51:11;;;;;;;15.00;9.88;;;;;;;;;;5085678;28;20669;-74
2024/03/13 13:53:37;;;;;;;17.80;11.13;;;;;;;;;;5078080;28;20089;-74
2024/03/13 13:56:02;;;;;;;17.23;10.55;;;;;;;;;;5071687;28;20341;-74
2024/03/13 13:58:29;;;;;;;15.65;9.10;;;;;;;;;;5079728;28;20033;-74
2024/03/13 14:00:54;;;;;;;15.32;9.50;;;;;;;;;;5082877;28;20032;-74
2024/03/13 14:03:21;;;;;;;12.95;8.68;;;;;;;;;;5075852;28;20033;-74
2024/03/13 14:05:46;;;;;;;13.23;8.10;;;;;;;;;;5072960;28;20016;-74
2024/03/13 14:08:14;;;;;;;11.30;7.20;;;;;;;;;;5075393;28;20641;-74
2024/03/13 14:10:40;;;;;;;11.18;7.10;;;;;;;;;;5077656;28;20508;-74
2024/03/13 14:13:05;;;;;;;11.75;7.00;;;;;;;;;;5071171;28;20100;-74
2024/03/13 14:15:31;;;;;;;9.98;6.22;;;;;;;;;;5072731;28;20500;-74
2024/03/13 14:17:57;;;;;;;10.07;5.90;;;;;;;;;;5077521;28;20623;-74
2024/03/13 14:20:23;;;;;;;10.18;5.60;;;;;;;;;;5075683;28;20081;-74
2024/03/13 14:22:49;;;;;;;10.07;5.63;;;;;;;;;;5075523;28;20029;-74
2024/03/13 14:25:14;;;;;;;9.40;5.95;;;;;;;;;;5073377;28;20034;-74
2024/03/13 14:27:40;;;;;;;9.13;6.15;;;;;;;;;;5070687;28;20094;-74
2024/03/13 14:30:07;;;;;;;9.40;5.60;;;;;;;;;;5075945;28;20035;-74
2024/03/13 14:32:32;;;;;;;8.07;4.50;;;;;;;;;;5072540;28;20039;-74